sensor_id;sensor_type;location;lat;lon;timestamp;P1;durP1;ratioP1;P2;durP2;ratioP2
25437;SDS011;13364;49.084;9.978;2024-03-23T00:53:28;5.40;;;3.47;;
25437;SDS011;13364;49.084;9.978;2024-03-23T00:55:54;5.07;;;3.40;;
25437;SDS011;13364;49.084;9.978;2024-03-23T00:58:20;4.05;;;3.30;;
25437;SDS011;13364;49.084;9.978;2024-03-23T01:00:46;5.75;;;3.28;;
25437;SDS011;13364;49.084;9.978;2024-03-23T01:03:11;4.80;;;3.60;;
25437;SDS011;13364;49.084;9.978;2024-03-23T01:05:37;7.03;;;3.88;;
25437;SDS011;13364;49.084;9.978;2024-03-23T01:08:03;5.47;;;4.15;;
25437;SDS011;13364;49.084;9.978;2024-03-23T01:10:30;4.35;;;3.60;;
25437;SDS011;13364;49.084;9.978;2024-03-23T01:12:56;4.35;;;3.22;;
25437;SDS011;13364;49.084;9.978;2024-03-23T01:15:21;4.38;;;3.40;;
25437;SDS011;13364;49.084;9.978;2024-03-23T01:17:47;4.47;;;3.13;;
25437;SDS011;13364;49.084;9.978;2024-03-23T01:20:13;4.25;;;3.33;;
25437;SDS011;13364;49.084;9.978;2024-03-23T01:22:39;5.38;;;3.20;;
25437;SDS011;13364;49.084;9.978;2024-03-23T01:25:05;4.00;;;3.08;;
25437;SDS011;13364;49.084;9.978;2024-03-23T01:27:31;5.45;;;3.33;;
25437;SDS011;13364;49.084;9.978;2024-03-23T01:29:58;4.68;;;2.90;;
25437;SDS011;13364;49.084;9.978;2024-03-23T01:32:23;7.05;;;3.38;;
25437;SDS011;13364;49.084;9.978;2024-03-23T01:34:49;6.53;;;3.38;;
25437;SDS011;13364;49.084;9.978;2024-03-23T01:37:15;5.07;;;3.50;;
25437;SDS011;13364;49.084;9.978;2024-03-23T01:39:41;11.43;;;3.55;;
25437;SDS011;13364;49.084;9.978;2024-03-23T01:42:07;4.18;;;3.20;;
25437;SDS011;13364;49.084;9.978;2024-03-23T01:44:33;3.40;;;2.97;;
25437;SDS011;13364;49.084;9.978;2024-03-23T01:46:59;4.68;;;3.17;;
25437;SDS011;13364;49.084;9.978;2024-03-23T01:49:25;5.93;;;3.30;;
25437;SDS011;13364;49.084;9.978;2024-03-23T01:51:51;3.42;;;2.97;;
25437;SDS011;13364;49.084;9.978;2024-03-23T01:54:17;4.03;;;2.65;;
25437;SDS011;13364;49.084;9.978;2024-03-23T01:56:44;3.83;;;2.80;;
25437;SDS011;13364;49.084;9.978;2024-03-23T01:59:09;5.10;;;2.83;;
25437;SDS011;13364;49.084;9.978;2024-03-23T02:01:35;2.45;;;2.25;;
25437;SDS011;13364;49.084;9.978;2024-03-23T02:04:01;4.45;;;2.83;;
25437;SDS011;13364;49.084;9.978;2024-03-23T02:06:27;4.22;;;2.50;;
25437;SDS011;13364;49.084;9.978;2024-03-23T02:08:54;4.35;;;2.83;;
25437;SDS011;13364;49.084;9.978;2024-03-23T02:11:20;3.38;;;2.45;;
25437;SDS011;13364;49.084;9.978;2024-03-23T02:13:46;6.22;;;2.90;;
25437;SDS011;13364;49.084;9.978;2024-03-23T02:16:12;3.55;;;2.60;;
25437;SDS011;13364;49.084;9.978;2024-03-23T02:18:41;2.78;;;2.30;;
25437;SDS011;13364;49.084;9.978;2024-03-23T02:21:07;3.80;;;2.60;;
25437;SDS011;13364;49.084;9.978;2024-03-23T02:23:32;5.03;;;2.38;;
25437;SDS011;13364;49.084;9.978;2024-03-23T02:25:58;5.35;;;2.45;;
25437;SDS011;13364;49.084;9.978;2024-03-23T02:28:24;4.95;;;2.40;;
25437;SDS011;13364;49.084;9.978;2024-03-23T02:30:50;5.53;;;2.70;;
25437;SDS011;13364;49.084;9.978;2024-03-23T02:33:16;5.38;;;2.45;;
25437;SDS011;13364;49.084;9.978;2024-03-23T02:35:45;3.08;;;2.42;;
25437;SDS011;13364;49.084;9.978;2024-03-23T02:38:12;5.40;;;2.33;;
25437;SDS011;13364;49.084;9.978;2024-03-23T02:40:38;2.63;;;1.92;;
25437;SDS011;13364;49.084;9.978;2024-03-23T02:43:04;3.88;;;2.50;;
25437;SDS011;13364;49.084;9.978;2024-03-23T02:45:30;3.13;;;2.30;;
25437;SDS011;13364;49.084;9.978;2024-03-23T02:47:56;3.17;;;2.17;;
25437;SDS011;13364;49.084;9.978;2024-03-23T02:50:22;6.18;;;2.22;;
25437;SDS011;13364;49.084;9.978;2024-03-23T02:52:48;2.72;;;1.98;;
25437;SDS011;13364;49.084;9.978;2024-03-23T02:55:14;3.33;;;2.50;;
25437;SDS011;13364;49.084;9.978;2024-03-23T02:57:40;2.60;;;2.28;;
25437;SDS011;13364;49.084;9.978;2024-03-23T03:00:07;4.38;;;2.63;;
25437;SDS011;13364;49.084;9.978;2024-03-23T03:02:34;4.85;;;2.72;;
25437;SDS011;13364;49.084;9.978;2024-03-23T03:05:00;4.45;;;2.60;;
25437;SDS011;13364;49.084;9.978;2024-03-23T03:07:26;3.72;;;2.50;;
25437;SDS011;13364;49.084;9.978;2024-03-23T03:09:52;4.45;;;2.58;;
25437;SDS011;13364;49.084;9.978;2024-03-23T03:12:18;2.85;;;2.10;;
25437;SDS011;13364;49.084;9.978;2024-03-23T03:14:44;3.38;;;2.53;;
25437;SDS011;13364;49.084;9.978;2024-03-23T03:17:09;3.95;;;2.65;;
25437;SDS011;13364;49.084;9.978;2024-03-23T03:19:35;3.88;;;2.60;;
25437;SDS011;13364;49.084;9.978;2024-03-23T03:22:01;3.28;;;2.53;;
25437;SDS011;13364;49.084;9.978;2024-03-23T03:24:27;5.85;;;2.45;;
25437;SDS011;13364;49.084;9.978;2024-03-23T03:26:53;2.97;;;2.25;;
25437;SDS011;13364;49.084;9.978;2024-03-23T03:29:19;3.42;;;2.55;;
25437;SDS011;13364;49.084;9.978;2024-03-23T03:31:45;7.75;;;2.78;;
25437;SDS011;13364;49.084;9.978;2024-03-23T03:34:11;4.18;;;2.63;;
25437;SDS011;13364;49.084;9.978;2024-03-23T03:36:37;3.97;;;2.60;;
25437;SDS011;13364;49.084;9.978;2024-03-23T03:39:03;4.38;;;2.53;;
25437;SDS011;13364;49.084;9.978;2024-03-23T03:41:29;2.83;;;2.45;;
25437;SDS011;13364;49.084;9.978;2024-03-23T03:43:56;4.05;;;2.22;;
25437;SDS011;13364;49.084;9.978;2024-03-23T03:46:26;3.10;;;2.80;;
25437;SDS011;13364;49.084;9.978;2024-03-23T03:48:54;4.00;;;2.50;;
25437;SDS011;13364;49.084;9.978;2024-03-23T03:51:20;3.83;;;3.03;;
25437;SDS011;13364;49.084;9.978;2024-03-23T03:53:46;3.63;;;2.70;;
25437;SDS011;13364;49.084;9.978;2024-03-23T03:56:12;4.22;;;2.63;;
25437;SDS011;13364;49.084;9.978;2024-03-23T03:58:38;4.40;;;3.00;;
25437;SDS011;13364;49.084;9.978;2024-03-23T04:01:05;3.95;;;2.45;;
25437;SDS011;13364;49.084;9.978;2024-03-23T04:03:31;3.53;;;2.65;;
25437;SDS011;13364;49.084;9.978;2024-03-23T04:05:57;3.33;;;2.63;;
25437;SDS011;13364;49.084;9.978;2024-03-23T04:08:23;3.45;;;2.58;;
25437;SDS011;13364;49.084;9.978;2024-03-23T04:10:49;4.40;;;3.05;;
25437;SDS011;13364;49.084;9.978;2024-03-23T04:13:15;3.97;;;2.55;;
25437;SDS011;13364;49.084;9.978;2024-03-23T04:15:41;3.65;;;2.60;;
25437;SDS011;13364;49.084;9.978;2024-03-23T04:18:07;4.70;;;2.67;;
25437;SDS011;13364;49.084;9.978;2024-03-23T04:20:33;4.55;;;2.67;;
25437;SDS011;13364;49.084;9.978;2024-03-23T04:22:59;4.50;;;3.15;;
25437;SDS011;13364;49.084;9.978;2024-03-23T04:25:25;3.40;;;2.72;;
25437;SDS011;13364;49.084;9.978;2024-03-23T04:27:51;6.55;;;2.53;;
25437;SDS011;13364;49.084;9.978;2024-03-23T04:30:17;3.85;;;3.08;;
25437;SDS011;13364;49.084;9.978;2024-03-23T04:32:44;4.05;;;2.78;;
25437;SDS011;13364;49.084;9.978;2024-03-23T04:35:10;4.15;;;2.83;;
25437;SDS011;13364;49.084;9.978;2024-03-23T04:37:37;3.00;;;2.45;;
25437;SDS011;13364;49.084;9.978;2024-03-23T04:40:06;3.45;;;2.83;;
25437;SDS011;13364;49.084;9.978;2024-03-23T04:42:32;2.35;;;2.13;;
25437;SDS011;13364;49.084;9.978;2024-03-23T04:44:59;3.40;;;2.60;;
25437;SDS011;13364;49.084;9.978;2024-03-23T04:47:25;3.20;;;2.47;;
25437;SDS011;13364;49.084;9.978;2024-03-23T04:49:51;3.05;;;2.58;;
25437;SDS011;13364;49.084;9.978;2024-03-23T04:52:17;3.70;;;2.42;;
25437;SDS011;13364;49.084;9.978;2024-03-23T04:54:43;7.88;;;2.80;;
25437;SDS011;13364;49.084;9.978;2024-03-23T04:57:10;6.40;;;3.15;;
25437;SDS011;13364;49.084;9.978;2024-03-23T04:59:36;3.67;;;2.70;;
25437;SDS011;13364;49.084;9.978;2024-03-23T05:02:02;3.67;;;2.38;;
25437;SDS011;13364;49.084;9.978;2024-03-23T05:04:28;2.65;;;2.38;;
25437;SDS011;13364;49.084;9.978;2024-03-23T05:06:54;4.50;;;2.75;;
25437;SDS011;13364;49.084;9.978;2024-03-23T05:09:20;3.13;;;2.53;;
25437;SDS011;13364;49.084;9.978;2024-03-23T05:11:46;6.13;;;2.58;;
25437;SDS011;13364;49.084;9.978;2024-03-23T05:14:15;6.05;;;3.50;;
25437;SDS011;13364;49.084;9.978;2024-03-23T05:16:41;4.77;;;3.10;;
25437;SDS011;13364;49.084;9.978;2024-03-23T05:19:07;5.90;;;4.38;;
25437;SDS011;13364;49.084;9.978;2024-03-23T05:21:33;8.63;;;5.00;;
25437;SDS011;13364;49.084;9.978;2024-03-23T05:23:59;13.20;;;6.82;;
25437;SDS011;13364;49.084;9.978;2024-03-23T05:26:25;9.20;;;5.68;;
25437;SDS011;13364;49.084;9.978;2024-03-23T05:28:51;13.82;;;6.32;;
25437;SDS011;13364;49.084;9.978;2024-03-23T05:31:26;13.75;;;6.43;;
25437;SDS011;13364;49.084;9.978;2024-03-23T05:33:53;10.25;;;6.22;;
25437;SDS011;13364;49.084;9.978;2024-03-23T05:36:20;10.60;;;6.75;;
25437;SDS011;13364;49.084;9.978;2024-03-23T05:38:46;12.00;;;7.80;;
25437;SDS011;13364;49.084;9.978;2024-03-23T05:41:12;11.38;;;6.07;;
25437;SDS011;13364;49.084;9.978;2024-03-23T05:43:38;12.88;;;8.00;;
25437;SDS011;13364;49.084;9.978;2024-03-23T05:46:03;12.63;;;7.70;;
25437;SDS011;13364;49.084;9.978;2024-03-23T05:48:30;11.23;;;7.10;;
25437;SDS011;13364;49.084;9.978;2024-03-23T05:50:57;11.55;;;7.72;;
25437;SDS011;13364;49.084;9.978;2024-03-23T05:53:23;14.18;;;8.27;;
25437;SDS011;13364;49.084;9.978;2024-03-23T05:55:50;12.75;;;7.53;;
25437;SDS011;13364;49.084;9.978;2024-03-23T05:58:19;13.88;;;8.68;;
25437;SDS011;13364;49.084;9.978;2024-03-23T06:00:45;13.07;;;7.80;;
25437;SDS011;13364;49.084;9.978;2024-03-23T06:03:11;14.52;;;8.32;;
25437;SDS011;13364;49.084;9.978;2024-03-23T06:05:37;13.93;;;7.78;;
25437;SDS011;13364;49.084;9.978;2024-03-23T06:08:04;12.45;;;8.23;;
25437;SDS011;13364;49.084;9.978;2024-03-23T06:10:30;14.80;;;8.55;;
25437;SDS011;13364;49.084;9.978;2024-03-23T06:12:57;11.13;;;8.25;;
25437;SDS011;13364;49.084;9.978;2024-03-23T06:15:24;14.30;;;8.63;;
25437;SDS011;13364;49.084;9.978;2024-03-23T06:17:50;14.73;;;7.95;;
25437;SDS011;13364;49.084;9.978;2024-03-23T06:20:16;13.38;;;8.23;;
25437;SDS011;13364;49.084;9.978;2024-03-23T06:22:42;11.93;;;7.00;;
25437;SDS011;13364;49.084;9.978;2024-03-23T06:25:08;11.30;;;7.20;;
25437;SDS011;13364;49.084;9.978;2024-03-23T06:27:34;13.48;;;7.28;;
25437;SDS011;13364;49.084;9.978;2024-03-23T06:30:00;11.88;;;6.78;;
25437;SDS011;13364;49.084;9.978;2024-03-23T06:32:27;12.70;;;7.68;;
25437;SDS011;13364;49.084;9.978;2024-03-23T06:34:54;11.82;;;6.80;;
25437;SDS011;13364;49.084;9.978;2024-03-23T06:37:20;10.50;;;6.68;;
25437;SDS011;13364;49.084;9.978;2024-03-23T06:39:46;10.77;;;6.25;;
25437;SDS011;13364;49.084;9.978;2024-03-23T06:42:12;9.80;;;5.88;;
25437;SDS011;13364;49.084;9.978;2024-03-23T06:44:38;9.38;;;6.05;;
25437;SDS011;13364;49.084;9.978;2024-03-23T06:47:05;10.10;;;5.78;;
25437;SDS011;13364;49.084;9.978;2024-03-23T06:49:31;8.23;;;5.15;;
25437;SDS011;13364;49.084;9.978;2024-03-23T06:51:57;9.18;;;5.07;;
25437;SDS011;13364;49.084;9.978;2024-03-23T06:54:23;9.93;;;5.60;;
25437;SDS011;13364;49.084;9.978;2024-03-23T06:56:49;7.47;;;5.20;;
25437;SDS011;13364;49.084;9.978;2024-03-23T06:59:15;14.07;;;5.55;;
25437;SDS011;13364;49.084;9.978;2024-03-23T07:01:41;8.38;;;4.93;;
25437;SDS011;13364;49.084;9.978;2024-03-23T07:04:07;7.78;;;5.40;;
25437;SDS011;13364;49.084;9.978;2024-03-23T07:06:33;8.23;;;4.97;;
25437;SDS011;13364;49.084;9.978;2024-03-23T07:08:59;10.95;;;5.00;;
25437;SDS011;13364;49.084;9.978;2024-03-23T07:11:25;9.57;;;6.22;;
25437;SDS011;13364;49.084;9.978;2024-03-23T07:13:52;8.50;;;5.68;;
25437;SDS011;13364;49.084;9.978;2024-03-23T07:16:21;8.10;;;5.03;;
25437;SDS011;13364;49.084;9.978;2024-03-23T07:18:47;7.72;;;5.13;;
25437;SDS011;13364;49.084;9.978;2024-03-23T07:21:17;7.85;;;4.95;;
25437;SDS011;13364;49.084;9.978;2024-03-23T07:23:53;7.80;;;4.70;;
25437;SDS011;13364;49.084;9.978;2024-03-23T07:26:19;5.28;;;4.15;;
25437;SDS011;13364;49.084;9.978;2024-03-23T07:28:45;7.45;;;4.07;;
25437;SDS011;13364;49.084;9.978;2024-03-23T07:31:12;6.43;;;3.75;;
25437;SDS011;13364;49.084;9.978;2024-03-23T07:33:44;6.93;;;3.90;;
25437;SDS011;13364;49.084;9.978;2024-03-23T07:36:11;7.07;;;4.00;;
25437;SDS011;13364;49.084;9.978;2024-03-23T07:38:37;6.32;;;3.42;;
25437;SDS011;13364;49.084;9.978;2024-03-23T07:41:06;4.70;;;3.20;;
25437;SDS011;13364;49.084;9.978;2024-03-23T07:43:32;4.38;;;2.95;;
25437;SDS011;13364;49.084;9.978;2024-03-23T07:45:59;4.57;;;2.65;;
25437;SDS011;13364;49.084;9.978;2024-03-23T07:48:26;3.92;;;2.20;;
25437;SDS011;13364;49.084;9.978;2024-03-23T07:51:00;3.63;;;2.53;;
25437;SDS011;13364;49.084;9.978;2024-03-23T07:53:30;3.50;;;2.55;;
25437;SDS011;13364;49.084;9.978;2024-03-23T07:55:58;3.88;;;2.45;;
25437;SDS011;13364;49.084;9.978;2024-03-23T07:58:25;2.35;;;1.73;;
25437;SDS011;13364;49.084;9.978;2024-03-23T08:00:52;2.97;;;2.10;;
25437;SDS011;13364;49.084;9.978;2024-03-23T08:03:18;2.58;;;1.70;;
25437;SDS011;13364;49.084;9.978;2024-03-23T08:05:45;2.08;;;1.73;;
25437;SDS011;13364;49.084;9.978;2024-03-23T08:08:11;2.42;;;1.73;;
25437;SDS011;13364;49.084;9.978;2024-03-23T08:10:37;3.42;;;2.03;;
25437;SDS011;13364;49.084;9.978;2024-03-23T08:13:16;2.53;;;1.77;;
25437;SDS011;13364;49.084;9.978;2024-03-23T08:15:42;1.60;;;1.50;;
25437;SDS011;13364;49.084;9.978;2024-03-23T08:18:08;1.90;;;1.33;;
25437;SDS011;13364;49.084;9.978;2024-03-23T08:20:35;2.92;;;1.90;;
25437;SDS011;13364;49.084;9.978;2024-03-23T08:23:01;2.15;;;1.52;;
25437;SDS011;13364;49.084;9.978;2024-03-23T08:25:30;2.20;;;1.77;;
25437;SDS011;13364;49.084;9.978;2024-03-23T08:27:57;3.90;;;2.00;;
25437;SDS011;13364;49.084;9.978;2024-03-23T08:30:23;2.55;;;1.65;;
25437;SDS011;13364;49.084;9.978;2024-03-23T08:32:49;2.65;;;1.75;;
25437;SDS011;13364;49.084;9.978;2024-03-23T08:35:15;2.90;;;2.20;;
25437;SDS011;13364;49.084;9.978;2024-03-23T08:37:41;2.30;;;1.92;;
25437;SDS011;13364;49.084;9.978;2024-03-23T08:40:08;2.35;;;2.13;;
25437;SDS011;13364;49.084;9.978;2024-03-23T08:42:34;2.83;;;2.05;;
25437;SDS011;13364;49.084;9.978;2024-03-23T08:45:00;2.88;;;1.88;;
25437;SDS011;13364;49.084;9.978;2024-03-23T08:47:26;3.15;;;2.13;;
25437;SDS011;13364;49.084;9.978;2024-03-23T08:49:52;2.55;;;1.85;;
25437;SDS011;13364;49.084;9.978;2024-03-23T08:52:18;1.92;;;1.60;;
25437;SDS011;13364;49.084;9.978;2024-03-23T08:54:44;2.17;;;1.70;;
25437;SDS011;13364;49.084;9.978;2024-03-23T08:57:10;1.65;;;1.52;;
25437;SDS011;13364;49.084;9.978;2024-03-23T08:59:37;3.22;;;1.30;;
25437;SDS011;13364;49.084;9.978;2024-03-23T09:02:03;1.63;;;1.52;;
25437;SDS011;13364;49.084;9.978;2024-03-23T09:04:29;2.05;;;1.60;;
25437;SDS011;13364;49.084;9.978;2024-03-23T09:06:56;3.00;;;1.83;;
25437;SDS011;13364;49.084;9.978;2024-03-23T09:09:24;1.58;;;1.48;;
25437;SDS011;13364;49.084;9.978;2024-03-23T09:11:50;1.45;;;1.35;;
25437;SDS011;13364;49.084;9.978;2024-03-23T09:14:16;1.50;;;1.40;;
25437;SDS011;13364;49.084;9.978;2024-03-23T09:16:41;2.60;;;2.25;;
25437;SDS011;13364;49.084;9.978;2024-03-23T09:19:07;1.63;;;1.50;;
25437;SDS011;13364;49.084;9.978;2024-03-23T09:21:33;1.83;;;1.50;;
25437;SDS011;13364;49.084;9.978;2024-03-23T09:23:59;1.50;;;1.40;;
25437;SDS011;13364;49.084;9.978;2024-03-23T09:26:25;1.40;;;1.30;;
25437;SDS011;13364;49.084;9.978;2024-03-23T09:28:51;1.17;;;1.08;;
25437;SDS011;13364;49.084;9.978;2024-03-23T09:31:17;1.85;;;1.05;;
25437;SDS011;13364;49.084;9.978;2024-03-23T09:33:43;1.58;;;1.48;;
25437;SDS011;13364;49.084;9.978;2024-03-23T09:36:09;1.52;;;1.30;;
25437;SDS011;13364;49.084;9.978;2024-03-23T09:38:35;2.28;;;1.30;;
25437;SDS011;13364;49.084;9.978;2024-03-23T09:41:06;1.67;;;1.23;;
25437;SDS011;13364;49.084;9.978;2024-03-23T09:43:33;1.45;;;1.30;;
25437;SDS011;13364;49.084;9.978;2024-03-23T09:45:59;1.80;;;1.23;;
25437;SDS011;13364;49.084;9.978;2024-03-23T09:48:26;4.65;;;1.70;;
25437;SDS011;13364;49.084;9.978;2024-03-23T09:50:52;1.75;;;1.52;;
25437;SDS011;13364;49.084;9.978;2024-03-23T09:53:18;2.45;;;1.20;;
25437;SDS011;13364;49.084;9.978;2024-03-23T09:55:44;3.72;;;1.73;;
25437;SDS011;13364;49.084;9.978;2024-03-23T09:58:17;3.03;;;1.73;;
25437;SDS011;13364;49.084;9.978;2024-03-23T10:00:43;2.03;;;1.60;;
25437;SDS011;13364;49.084;9.978;2024-03-23T10:03:10;5.95;;;2.13;;
25437;SDS011;13364;49.084;9.978;2024-03-23T10:05:37;2.88;;;1.85;;
25437;SDS011;13364;49.084;9.978;2024-03-23T10:10:41;2.50;;;1.58;;
25437;SDS011;13364;49.084;9.978;2024-03-23T10:13:07;4.50;;;2.10;;
25437;SDS011;13364;49.084;9.978;2024-03-23T10:15:34;2.67;;;1.75;;
25437;SDS011;13364;49.084;9.978;2024-03-23T10:18:19;6.57;;;1.98;;
25437;SDS011;13364;49.084;9.978;2024-03-23T10:20:47;5.38;;;2.20;;
25437;SDS011;13364;49.084;9.978;2024-03-23T10:23:16;5.00;;;2.08;;
25437;SDS011;13364;49.084;9.978;2024-03-23T10:25:42;4.70;;;1.80;;
25437;SDS011;13364;49.084;9.978;2024-03-23T10:28:08;5.43;;;2.60;;
25437;SDS011;13364;49.084;9.978;2024-03-23T10:30:35;5.25;;;2.40;;
25437;SDS011;13364;49.084;9.978;2024-03-23T10:33:07;4.70;;;2.60;;
25437;SDS011;13364;49.084;9.978;2024-03-23T10:35:37;6.53;;;2.45;;
25437;SDS011;13364;49.084;9.978;2024-03-23T10:38:07;5.53;;;2.60;;
25437;SDS011;13364;49.084;9.978;2024-03-23T10:40:36;4.57;;;2.13;;
25437;SDS011;13364;49.084;9.978;2024-03-23T10:43:02;4.63;;;2.15;;
25437;SDS011;13364;49.084;9.978;2024-03-23T10:45:30;3.97;;;2.33;;
25437;SDS011;13364;49.084;9.978;2024-03-23T10:47:56;5.43;;;2.30;;
25437;SDS011;13364;49.084;9.978;2024-03-23T10:50:22;2.53;;;2.20;;
25437;SDS011;13364;49.084;9.978;2024-03-23T10:52:48;4.55;;;2.05;;
25437;SDS011;13364;49.084;9.978;2024-03-23T10:55:16;4.45;;;2.22;;
25437;SDS011;13364;49.084;9.978;2024-03-23T10:57:55;4.70;;;2.10;;
25437;SDS011;13364;49.084;9.978;2024-03-23T11:00:24;3.22;;;1.50;;
25437;SDS011;13364;49.084;9.978;2024-03-23T11:02:50;8.88;;;2.20;;
25437;SDS011;13364;49.084;9.978;2024-03-23T11:07:52;1.90;;;1.65;;
25437;SDS011;13364;49.084;9.978;2024-03-23T11:10:29;5.30;;;2.22;;
25437;SDS011;13364;49.084;9.978;2024-03-23T11:12:56;1.90;;;1.60;;
25437;SDS011;13364;49.084;9.978;2024-03-23T11:15:22;2.75;;;1.77;;
25437;SDS011;13364;49.084;9.978;2024-03-23T11:18:04;2.72;;;1.83;;
25437;SDS011;13364;49.084;9.978;2024-03-23T11:20:34;3.38;;;2.00;;
25437;SDS011;13364;49.084;9.978;2024-03-23T11:23:00;3.20;;;2.08;;
25437;SDS011;13364;49.084;9.978;2024-03-23T11:25:27;6.80;;;2.20;;
25437;SDS011;13364;49.084;9.978;2024-03-23T11:27:55;5.50;;;2.58;;
25437;SDS011;13364;49.084;9.978;2024-03-23T11:30:26;4.70;;;2.15;;
25437;SDS011;13364;49.084;9.978;2024-03-23T11:32:57;8.32;;;2.22;;
25437;SDS011;13364;49.084;9.978;2024-03-23T11:40:29;2.92;;;1.80;;
25437;SDS011;13364;49.084;9.978;2024-03-23T11:42:56;4.50;;;1.95;;
25437;SDS011;13364;49.084;9.978;2024-03-23T11:45:26;4.97;;;2.00;;
25437;SDS011;13364;49.084;9.978;2024-03-23T11:48:02;10.13;;;1.95;;
25437;SDS011;13364;49.084;9.978;2024-03-23T11:50:32;7.47;;;2.10;;
25437;SDS011;13364;49.084;9.978;2024-03-23T11:53:06;5.65;;;2.00;;
25437;SDS011;13364;49.084;9.978;2024-03-23T11:55:59;2.97;;;1.90;;
25437;SDS011;13364;49.084;9.978;2024-03-23T11:58:27;2.72;;;1.98;;
25437;SDS011;13364;49.084;9.978;2024-03-23T12:00:55;6.32;;;2.28;;
25437;SDS011;13364;49.084;9.978;2024-03-23T12:05:54;9.20;;;2.47;;
25437;SDS011;13364;49.084;9.978;2024-03-23T12:11:06;5.45;;;2.05;;
25437;SDS011;13364;49.084;9.978;2024-03-23T12:13:43;4.30;;;2.38;;
25437;SDS011;13364;49.084;9.978;2024-03-23T12:16:12;3.63;;;2.03;;
25437;SDS011;13364;49.084;9.978;2024-03-23T12:18:40;6.93;;;1.88;;
25437;SDS011;13364;49.084;9.978;2024-03-23T12:21:06;7.22;;;2.30;;
25437;SDS011;13364;49.084;9.978;2024-03-23T12:23:33;3.85;;;2.28;;
25437;SDS011;13364;49.084;9.978;2024-03-23T12:25:59;5.85;;;2.20;;
25437;SDS011;13364;49.084;9.978;2024-03-23T12:28:25;7.85;;;2.47;;
25437;SDS011;13364;49.084;9.978;2024-03-23T12:30:51;6.20;;;2.20;;
25437;SDS011;13364;49.084;9.978;2024-03-23T12:33:18;4.70;;;2.00;;
25437;SDS011;13364;49.084;9.978;2024-03-23T12:35:44;8.60;;;2.50;;
25437;SDS011;13364;49.084;9.978;2024-03-23T12:38:10;3.88;;;2.20;;
25437;SDS011;13364;49.084;9.978;2024-03-23T12:40:36;4.30;;;1.95;;
25437;SDS011;13364;49.084;9.978;2024-03-23T12:43:02;6.15;;;2.20;;
25437;SDS011;13364;49.084;9.978;2024-03-23T12:45:28;5.65;;;2.08;;
25437;SDS011;13364;49.084;9.978;2024-03-23T12:47:53;6.05;;;1.77;;
25437;SDS011;13364;49.084;9.978;2024-03-23T12:50:20;4.97;;;2.08;;
25437;SDS011;13364;49.084;9.978;2024-03-23T12:52:46;10.05;;;2.13;;
25437;SDS011;13364;49.084;9.978;2024-03-23T12:55:12;7.45;;;2.28;;
25437;SDS011;13364;49.084;9.978;2024-03-23T12:57:38;4.65;;;2.10;;
25437;SDS011;13364;49.084;9.978;2024-03-23T13:00:06;4.05;;;2.25;;
25437;SDS011;13364;49.084;9.978;2024-03-23T13:02:34;4.53;;;2.17;;
25437;SDS011;13364;49.084;9.978;2024-03-23T13:05:00;3.72;;;1.83;;
25437;SDS011;13364;49.084;9.978;2024-03-23T13:07:26;4.60;;;2.20;;
25437;SDS011;13364;49.084;9.978;2024-03-23T13:09:52;4.90;;;2.00;;
25437;SDS011;13364;49.084;9.978;2024-03-23T13:12:19;4.93;;;2.42;;
25437;SDS011;13364;49.084;9.978;2024-03-23T13:14:46;6.82;;;1.80;;
25437;SDS011;13364;49.084;9.978;2024-03-23T13:17:12;3.30;;;2.00;;
25437;SDS011;13364;49.084;9.978;2024-03-23T13:19:38;5.90;;;2.13;;
25437;SDS011;13364;49.084;9.978;2024-03-23T13:22:05;7.82;;;2.55;;
25437;SDS011;13364;49.084;9.978;2024-03-23T13:24:31;7.65;;;2.15;;
25437;SDS011;13364;49.084;9.978;2024-03-23T13:26:57;5.88;;;2.53;;
25437;SDS011;13364;49.084;9.978;2024-03-23T13:29:23;5.32;;;2.22;;
25437;SDS011;13364;49.084;9.978;2024-03-23T13:31:50;3.88;;;2.42;;
25437;SDS011;13364;49.084;9.978;2024-03-23T13:34:16;6.28;;;2.33;;
25437;SDS011;13364;49.084;9.978;2024-03-23T13:36:43;6.05;;;2.15;;
25437;SDS011;13364;49.084;9.978;2024-03-23T13:39:10;5.30;;;2.05;;
25437;SDS011;13364;49.084;9.978;2024-03-23T13:41:45;4.63;;;2.38;;
25437;SDS011;13364;49.084;9.978;2024-03-23T13:44:12;3.35;;;2.08;;
25437;SDS011;13364;49.084;9.978;2024-03-23T13:46:39;4.03;;;1.75;;
25437;SDS011;13364;49.084;9.978;2024-03-23T13:49:24;3.50;;;1.98;;
25437;SDS011;13364;49.084;9.978;2024-03-23T13:51:50;6.47;;;1.80;;
25437;SDS011;13364;49.084;9.978;2024-03-23T13:54:16;3.10;;;1.65;;
25437;SDS011;13364;49.084;9.978;2024-03-23T13:56:42;2.80;;;1.42;;
25437;SDS011;13364;49.084;9.978;2024-03-23T13:59:08;3.45;;;1.50;;
25437;SDS011;13364;49.084;9.978;2024-03-23T14:01:34;2.22;;;1.60;;
25437;SDS011;13364;49.084;9.978;2024-03-23T14:04:00;2.38;;;1.38;;
25437;SDS011;13364;49.084;9.978;2024-03-23T14:06:25;6.78;;;1.60;;
25437;SDS011;13364;49.084;9.978;2024-03-23T14:08:51;3.65;;;1.35;;
25437;SDS011;13364;49.084;9.978;2024-03-23T14:11:18;3.70;;;1.55;;
25437;SDS011;13364;49.084;9.978;2024-03-23T14:13:44;3.75;;;1.75;;
25437;SDS011;13364;49.084;9.978;2024-03-23T14:16:10;5.97;;;1.80;;
25437;SDS011;13364;49.084;9.978;2024-03-23T14:18:36;11.63;;;2.08;;
25437;SDS011;13364;49.084;9.978;2024-03-23T14:21:02;2.38;;;1.27;;
25437;SDS011;13364;49.084;9.978;2024-03-23T14:23:28;2.08;;;1.20;;
25437;SDS011;13364;49.084;9.978;2024-03-23T14:25:55;2.08;;;1.30;;
25437;SDS011;13364;49.084;9.978;2024-03-23T14:28:24;3.03;;;1.30;;
25437;SDS011;13364;49.084;9.978;2024-03-23T14:30:51;4.80;;;0.90;;
25437;SDS011;13364;49.084;9.978;2024-03-23T14:33:17;1.98;;;0.93;;
25437;SDS011;13364;49.084;9.978;2024-03-23T14:35:53;1.20;;;1.00;;
25437;SDS011;13364;49.084;9.978;2024-03-23T14:38:21;5.50;;;1.27;;
25437;SDS011;13364;49.084;9.978;2024-03-23T14:40:47;2.90;;;1.00;;
25437;SDS011;13364;49.084;9.978;2024-03-23T14:43:12;1.98;;;1.25;;
25437;SDS011;13364;49.084;9.978;2024-03-23T14:48:33;1.70;;;0.90;;
25437;SDS011;13364;49.084;9.978;2024-03-23T14:51:00;1.42;;;0.88;;
25437;SDS011;13364;49.084;9.978;2024-03-23T14:53:26;3.65;;;1.15;;
25437;SDS011;13364;49.084;9.978;2024-03-23T14:55:59;2.90;;;0.70;;
25437;SDS011;13364;49.084;9.978;2024-03-23T14:58:25;2.95;;;1.00;;
25437;SDS011;13364;49.084;9.978;2024-03-23T15:00:51;1.88;;;0.75;;
25437;SDS011;13364;49.084;9.978;2024-03-23T15:03:18;3.65;;;1.10;;
25437;SDS011;13364;49.084;9.978;2024-03-23T15:05:54;1.85;;;0.73;;
25437;SDS011;13364;49.084;9.978;2024-03-23T15:08:21;0.90;;;0.90;;
25437;SDS011;13364;49.084;9.978;2024-03-23T15:10:47;1.25;;;0.85;;
25437;SDS011;13364;49.084;9.978;2024-03-23T15:13:14;0.98;;;0.90;;
25437;SDS011;13364;49.084;9.978;2024-03-23T15:15:40;2.13;;;1.20;;
25437;SDS011;13364;49.084;9.978;2024-03-23T15:18:12;1.85;;;0.77;;
25437;SDS011;13364;49.084;9.978;2024-03-23T15:20:39;1.67;;;1.05;;
25437;SDS011;13364;49.084;9.978;2024-03-23T15:23:05;2.22;;;1.10;;
25437;SDS011;13364;49.084;9.978;2024-03-23T15:25:30;2.92;;;1.25;;
25437;SDS011;13364;49.084;9.978;2024-03-23T15:27:57;2.17;;;0.88;;
25437;SDS011;13364;49.084;9.978;2024-03-23T15:30:24;1.48;;;0.80;;
25437;SDS011;13364;49.084;9.978;2024-03-23T15:32:51;1.92;;;1.05;;
25437;SDS011;13364;49.084;9.978;2024-03-23T15:35:18;4.07;;;1.33;;
25437;SDS011;13364;49.084;9.978;2024-03-23T15:37:46;2.15;;;0.90;;
25437;SDS011;13364;49.084;9.978;2024-03-23T15:40:12;3.42;;;1.10;;
25437;SDS011;13364;49.084;9.978;2024-03-23T15:42:38;1.95;;;0.85;;
25437;SDS011;13364;49.084;9.978;2024-03-23T15:45:07;2.42;;;0.95;;
25437;SDS011;13364;49.084;9.978;2024-03-23T15:47:35;2.25;;;1.10;;
25437;SDS011;13364;49.084;9.978;2024-03-23T15:50:01;2.72;;;1.15;;
25437;SDS011;13364;49.084;9.978;2024-03-23T15:52:28;4.20;;;1.50;;
25437;SDS011;13364;49.084;9.978;2024-03-23T15:54:54;5.47;;;1.58;;